Time;durP1;ratioP1;P1;durP2;ratioP2;P2;SDS_P1;SDS_P2;PMS_P1;PMS_P2;Temp;Humidity;BMP_temperature;BMP_pressure;BME280_temperature;BME280_humidity;BME280_pressure;Samples;Min_cycle;Max_cycle;Signal;HPM_P1;HPM_P2
2023/06/17 00:01:34;;;;;;;13.30;12.10;;;;;;;12.51;70.54;99407.08;217071;1269;140120;-68
2023/06/17 00:06:39;;;;;;;13.10;9.90;;;;;;;12.40;70.35;99400.30;217569;1271;140588;-70
2023/06/17 00:11:43;;;;;;;12.70;11.50;;;;;;;12.24;70.40;99401.08;216364;1271;140581;-68
2023/06/17 00:16:48;;;;;;;13.40;12.10;;;;;;;12.12;70.49;99395.19;217571;1271;140616;-69
2023/06/17 00:21:53;;;;;;;14.20;12.80;;;;;;;12.06;70.95;99397.21;217164;1271;140293;-67
2023/06/17 00:26:58;;;;;;;13.50;12.10;;;;;;;12.05;71.17;99398.16;217179;1272;140613;-69
2023/06/17 00:32:03;;;;;;;14.40;12.90;;;;;;;12.08;71.33;99397.06;216720;1271;141235;-70
2023/06/17 00:37:08;;;;;;;14.50;12.50;;;;;;;12.05;71.10;99395.11;216378;1270;140021;-70
2023/06/17 00:42:14;;;;;;;14.70;13.20;;;;;;;11.98;71.66;99391.19;216524;1271;139922;-68
2023/06/17 00:47:19;;;;;;;10.90;9.90;;;;;;;11.96;71.66;99387.00;216239;1270;139926;-66
2023/06/17 00:52:27;;;;;;;14.30;13.00;;;;;;;11.82;71.50;99384.84;216223;1271;140111;-70
2023/06/17 00:57:37;;;;;;;15.40;13.50;;;;;;;11.75;72.34;99390.38;216070;1271;140701;-67
2023/06/17 01:02:43;;;;;;;13.10;11.90;;;;;;;11.76;72.37;99386.75;216381;1272;140091;-67
2023/06/17 01:08:08;;;;;;;14.90;13.40;;;;;;;11.61;71.73;99381.16;217971;1272;141329;-67
2023/06/17 01:13:16;;;;;;;13.80;12.40;;;;;;;11.44;71.83;99387.54;216580;1271;140066;-67
2023/06/17 01:18:22;;;;;;;14.10;12.90;;;;;;;11.34;72.24;99385.47;216426;1271;140645;-68
2023/06/17 01:23:34;;;;;;;14.70;13.20;;;;;;;11.33;72.60;99383.11;218153;1273;139903;-70
2023/06/17 01:28:40;;;;;;;12.80;11.60;;;;;;;11.31;72.52;99381.71;218686;1271;141369;-71
2023/06/17 01:33:48;;;;;;;14.70;13.20;;;;;;;11.19;72.45;99392.23;217817;1269;140727;-70
2023/06/17 01:39:04;;;;;;;14.10;12.70;;;;;;;11.10;72.92;99393.23;218862;1269;141214;-69
2023/06/17 01:44:10;;;;;;;16.00;13.70;;;;;;;11.12;73.21;99390.59;217869;1271;140870;-67
2023/06/17 01:49:15;;;;;;;12.80;11.50;;;;;;;11.15;73.34;99385.73;218003;1271;140629;-69
2023/06/17 01:54:20;;;;;;;13.30;12.00;;;;;;;11.18;73.37;99382.61;216248;1272;140003;-69
2023/06/17 01:59:24;;;;;;;15.30;13.00;;;;;;;11.16;73.34;99370.15;216956;1272;141062;-70
2023/06/17 02:04:28;;;;;;;14.30;12.90;;;;;;;11.17;73.95;99372.94;216830;1271;140796;-69
2023/06/17 02:09:32;;;;;;;15.20;13.30;;;;;;;11.11;73.45;99372.60;216496;1271;141082;-69
2023/06/17 02:14:36;;;;;;;13.90;12.60;;;;;;;11.05;73.62;99375.61;216582;1272;139971;-68
2023/06/17 02:19:41;;;;;;;11.90;10.80;;;;;;;10.90;73.34;99374.29;216224;1273;140350;-69
2023/06/17 02:24:46;;;;;;;17.00;14.40;;;;;;;10.77;73.75;99381.88;217080;1269;140181;-68
2023/06/17 02:29:51;;;;;;;14.10;12.70;;;;;;;10.74;74.18;99386.63;216466;1272;142078;-68
2023/06/17 02:34:57;;;;;;;16.50;13.20;;;;;;;10.76;74.55;99386.93;216210;1271;140069;-67
2023/06/17 02:40:06;;;;;;;17.40;11.90;;;;;;;10.75;74.20;99391.86;216490;1272;140370;-67
2023/06/17 02:45:12;;;;;;;12.40;11.20;;;;;;;10.68;74.12;99388.63;216278;1273;140484;-68
2023/06/17 02:50:20;;;;;;;14.10;12.20;;;;;;;10.57;74.01;99381.73;216775;1273;140106;-68
2023/06/17 02:55:28;;;;;;;14.70;13.20;;;;;;;10.48;74.36;99383.48;217265;1270;140310;-67
2023/06/17 03:00:36;;;;;;;14.00;12.60;;;;;;;10.49;74.68;99385.66;216292;1271;141201;-67
2023/06/17 03:05:43;;;;;;;14.10;11.70;;;;;;;10.53;74.80;99386.42;217600;1269;141130;-68
2023/06/17 03:10:47;;;;;;;14.50;12.20;;;;;;;10.51;74.84;99382.59;217225;1272;140599;-69
2023/06/17 03:15:53;;;;;;;14.30;12.80;;;;;;;10.47;74.67;99381.95;217810;1272;142995;-66
2023/06/17 03:20:57;;;;;;;11.70;10.60;;;;;;;10.48;74.83;99379.14;218343;1271;140602;-66
2023/06/17 03:26:01;;;;;;;13.50;12.10;;;;;;;10.54;74.99;99381.05;218840;1269;141093;-70
2023/06/17 03:31:06;;;;;;;12.80;11.40;;;;;;;10.61;75.44;99385.75;218452;1272;140319;-67
2023/06/17 03:36:12;;;;;;;22.40;15.20;;;;;;;10.75;75.58;99381.80;218413;1270;140613;-67
2023/06/17 03:41:18;;;;;;;15.10;13.80;;;;;;;10.99;75.84;99379.86;216644;1270;140736;-68
2023/06/17 03:46:23;;;;;;;15.00;13.60;;;;;;;11.36;76.17;99376.80;218856;1270;140638;-67
2023/06/17 03:51:29;;;;;;;13.00;11.70;;;;;;;11.68;75.99;99377.39;217929;1269;140402;-68
2023/06/17 03:56:33;;;;;;;15.90;14.40;;;;;;;11.89;76.20;99384.27;216213;1272;139892;-67
2023/06/17 04:01:38;;;;;;;15.80;14.30;;;;;;;12.15;76.13;99388.54;217431;1271;140329;-69
2023/06/17 04:06:43;;;;;;;14.80;13.50;;;;;;;12.31;76.43;99387.23;216123;1272;140285;-68
2023/06/17 04:11:48;;;;;;;16.10;12.90;;;;;;;12.50;76.68;99384.83;217193;1272;150756;-71
2023/06/17 04:16:53;;;;;;;16.90;14.10;;;;;;;12.70;76.57;99389.56;216337;1273;140428;-71
2023/06/17 04:21:57;;;;;;;15.30;13.70;;;;;;;12.93;76.51;99391.86;216351;1273;140897;-66
2023/06/17 04:27:05;;;;;;;15.30;13.80;;;;;;;13.03;76.72;99390.70;217102;1273;221657;-66
2023/06/17 04:32:10;;;;;;;14.50;13.20;;;;;;;13.22;76.76;99386.37;217277;1272;140251;-68
2023/06/17 04:37:16;;;;;;;16.30;13.50;;;;;;;13.81;76.38;99385.84;217467;1270;141247;-68
2023/06/17 04:42:22;;;;;;;15.80;13.60;;;;;;;14.54;75.95;99394.40;217170;1270;141253;-68
2023/06/17 04:47:28;;;;;;;17.40;15.70;;;;;;;15.31;74.93;99396.33;216850;1272;141307;-67
2023/06/17 04:52:34;;;;;;;16.50;14.90;;;;;;;15.47;75.00;99397.14;216841;1270;141085;-66
2023/06/17 04:57:42;;;;;;;17.60;15.70;;;;;;;15.73;74.69;99403.49;216590;1270;141044;-67
2023/06/17 05:02:47;;;;;;;19.80;17.90;;;;;;;15.90;74.44;99405.84;217605;1272;140305;-67
2023/06/17 05:07:52;;;;;;;19.10;17.10;;;;;;;16.29;74.20;99410.02;217869;1272;141143;-68
2023/06/17 05:12:56;;;;;;;19.00;17.30;;;;;;;18.23;72.00;99405.55;217211;1270;140031;-68
2023/06/17 05:18:02;;;;;;;19.70;18.00;;;;;;;21.11;68.26;99401.71;216328;1271;142446;-67
2023/06/17 05:23:07;;;;;;;19.00;17.10;;;;;;;23.75;64.04;99399.92;218481;1270;140211;-68
2023/06/17 05:28:10;;;;;;;19.40;17.70;;;;;;;26.15;60.29;99404.07;218913;1270;140535;-68
2023/06/17 05:33:15;;;;;;;14.90;13.50;;;;;;;28.02;56.08;99409.77;217575;1270;140016;-68
2023/06/17 05:38:21;;;;;;;16.20;14.80;;;;;;;29.76;53.68;99403.27;218846;1272;139658;-70
2023/06/17 05:43:27;;;;;;;14.70;13.10;;;;;;;31.74;50.80;99411.64;218413;1270;139574;-68
2023/06/17 05:48:33;;;;;;;12.40;11.40;;;;;;;33.32;47.48;99422.04;217606;1270;139586;-68
2023/06/17 05:53:40;;;;;;;12.20;11.10;;;;;;;34.02;43.86;99415.67;217148;1270;139267;-67
2023/06/17 05:58:50;;;;;;;12.10;11.10;;;;;;;34.97;42.34;99414.42;217541;1273;139198;-67
2023/06/17 06:03:56;;;;;;;10.50;9.60;;;;;;;35.82;40.20;99417.45;216087;1270;139530;-67
2023/06/17 06:09:01;;;;;;;12.00;10.80;;;;;;;36.29;38.49;99419.94;217568;1272;139895;-68
2023/06/17 06:14:06;;;;;;;10.00;9.10;;;;;;;35.99;37.44;99421.23;216834;1270;139956;-67
2023/06/17 06:19:12;;;;;;;11.10;10.10;;;;;;;36.20;36.54;99414.95;217265;1269;140828;-69
2023/06/17 06:24:16;;;;;;;10.00;9.10;;;;;;;36.93;36.15;99417.87;216547;1273;141520;-69
2023/06/17 06:29:21;;;;;;;9.40;8.50;;;;;;;36.61;34.45;99423.93;216868;1270;139187;-70
2023/06/17 06:34:25;;;;;;;11.00;10.00;;;;;;;34.88;34.61;99425.30;216594;1273;141420;-68
2023/06/17 06:39:30;;;;;;;11.20;9.90;;;;;;;33.38;35.18;99423.90;216652;1270;139325;-68
2023/06/17 06:44:36;;;;;;;11.20;10.20;;;;;;;31.52;36.21;99423.11;216248;1270;139285;-68
2023/06/17 06:49:42;;;;;;;10.90;10.00;;;;;;;30.31;37.38;99423.89;216589;1270;139271;-69
2023/06/17 06:54:48;;;;;;;12.60;11.50;;;;;;;31.62;38.09;99424.54;217484;1270;139042;-68
2023/06/17 06:59:54;;;;;;;12.70;11.50;;;;;;;32.92;37.20;99424.86;216195;1270;139001;-71
2023/06/17 07:05:00;;;;;;;9.80;9.00;;;;;;;33.52;36.41;99424.44;216973;1270;140289;-66
2023/06/17 07:10:05;;;;;;;21.30;8.50;;;;;;;34.20;36.02;99422.17;216691;1270;210400;-66
2023/06/17 07:15:10;;;;;;;9.10;8.30;;;;;;;34.23;34.75;99415.27;218592;1270;140114;-68
2023/06/17 07:20:15;;;;;;;9.40;8.50;;;;;;;34.28;34.49;99420.10;218661;1270;139196;-68
2023/06/17 07:25:20;;;;;;;8.10;7.50;;;;;;;34.07;34.81;99417.79;218664;1270;140440;-69
2023/06/17 07:30:25;;;;;;;7.70;7.10;;;;;;;34.21;35.11;99415.92;216446;1270;139093;-66
2023/06/17 07:35:30;;;;;;;8.70;8.10;;;;;;;34.08;35.02;99416.20;218288;1270;139152;-65
2023/06/17 07:40:36;;;;;;;22.50;8.10;;;;;;;34.01;35.05;99414.65;218725;1270;139626;-67
2023/06/17 07:45:41;;;;;;;9.80;9.00;;;;;;;33.66;34.77;99415.42;218760;1270;139885;-66
2023/06/17 07:50:46;;;;;;;8.60;7.90;;;;;;;33.18;35.01;99405.73;216322;1273;220899;-65
2023/06/17 07:55:51;;;;;;;7.90;7.30;;;;;;;32.84;35.31;99399.69;216657;1270;138861;-68
2023/06/17 08:00:56;;;;;;;9.60;8.70;;;;;;;32.52;35.82;99403.06;216672;1270;140116;-65
2023/06/17 08:06:01;;;;;;;8.00;7.30;;;;;;;32.15;35.74;99399.30;216663;1269;139629;-65
2023/06/17 08:11:05;;;;;;;8.30;7.60;;;;;;;31.76;36.23;99387.74;216948;1271;141148;-65
2023/06/17 08:16:10;;;;;;;;;;;;;;;31.53;36.63;99384.59;216015;1271;139492;-67
2023/06/17 08:21:14;;;;;;;9.80;8.90;;;;;;;31.24;36.90;99388.15;216563;1270;126323;-67
2023/06/17 08:26:18;;;;;;;9.30;8.60;;;;;;;31.14;37.07;99386.64;218299;1270;139187;-68
2023/06/17 08:31:26;;;;;;;9.50;8.20;;;;;;;30.65;37.25;99383.96;216131;1270;138993;-64
2023/06/17 08:36:32;;;;;;;10.10;9.20;;;;;;;30.84;38.00;99386.61;216716;1272;139129;-68
2023/06/17 08:41:39;;;;;;;7.20;6.70;;;;;;;30.82;37.85;99380.30;216442;1271;140401;-64
2023/06/17 08:46:45;;;;;;;9.20;8.30;;;;;;;30.45;37.78;99377.85;216445;1271;139055;-65
2023/06/17 08:51:50;;;;;;;51.80;10.80;;;;;;;30.27;38.30;99384.08;216691;1269;141193;-65
2023/06/17 08:56:56;;;;;;;8.60;7.40;;;;;;;30.30;38.11;99381.36;218481;1270;139849;-70
2023/06/17 09:02:02;;;;;;;6.90;6.30;;;;;;;29.75;38.18;99377.42;217465;1269;141008;-68
2023/06/17 09:07:09;;;;;;;8.70;7.60;;;;;;;29.68;38.96;99372.77;217408;1269;140348;-69
2023/06/17 09:12:13;;;;;;;8.10;6.60;;;;;;;29.36;38.75;99375.48;218372;1271;139876;-70
2023/06/17 09:17:31;;;;;;;9.70;8.30;;;;;;;28.61;38.57;99384.98;215705;1271;138828;-67
2023/06/17 09:22:45;;;;;;;10.30;9.20;;;;;;;28.04;39.07;99382.66;218648;1269;138976;-67
2023/06/17 09:27:50;;;;;;;11.30;7.70;;;;;;;27.82;39.70;99377.20;218603;1271;140875;-67
2023/06/17 09:32:57;;;;;;;9.50;7.40;;;;;;;28.35;40.47;99378.38;218644;1270;139623;-66
2023/06/17 09:38:01;;;;;;;7.80;7.30;;;;;;;28.56;40.23;99380.77;217312;1269;139428;-65
2023/06/17 09:43:09;;;;;;;7.80;7.20;;;;;;;28.09;39.71;99380.73;217349;1270;140534;-67
2023/06/17 09:48:33;;;;;;;8.90;8.20;;;;;;;27.74;40.22;99375.99;217154;1270;223334;-69
2023/06/17 09:53:41;;;;;;;8.00;7.10;;;;;;;27.55;40.40;99378.83;217389;1268;150846;-68
2023/06/17 09:58:47;;;;;;;6.40;5.90;;;;;;;27.31;40.63;99375.28;216154;1270;140841;-71
2023/06/17 10:03:51;;;;;;;7.30;6.60;;;;;;;27.61;41.29;99370.84;215966;1270;140157;-70
2023/06/17 10:08:57;;;;;;;8.20;7.50;;;;;;;27.72;40.77;99366.02;216845;1270;140658;-67
2023/06/17 10:14:18;;;;;;;7.70;7.00;;;;;;;27.55;40.40;99366.02;216407;1270;139251;-67
2023/06/17 10:19:28;;;;;;;7.10;6.50;;;;;;;27.30;40.24;99365.58;216185;1269;139351;-68
2023/06/17 10:24:34;;;;;;;6.90;6.20;;;;;;;26.99;40.50;99358.55;215812;1270;138946;-69
2023/06/17 10:29:43;;;;;;;7.60;7.00;;;;;;;26.73;40.70;99354.61;216489;1270;140097;-69
2023/06/17 10:35:19;;;;;;;7.30;6.80;;;;;;;26.45;41.39;99352.38;216348;1269;140186;-70
2023/06/17 10:40:30;;;;;;;7.50;6.90;;;;;;;26.22;41.88;99360.45;216159;1270;140141;-68
2023/06/17 10:46:00;;;;;;;6.60;5.80;;;;;;;26.14;42.04;99359.77;216167;1269;139989;-69
2023/06/17 10:51:10;;;;;;;7.60;6.60;;;;;;;26.20;42.29;99356.90;216488;1270;138881;-69
2023/06/17 10:56:15;;;;;;;7.40;6.80;;;;;;;26.31;42.21;99356.66;217143;1271;140264;-68
2023/06/17 11:01:20;;;;;;;8.50;7.70;;;;;;;26.58;42.42;99356.00;218182;1269;138973;-69
2023/06/17 11:06:24;;;;;;;7.20;6.60;;;;;;;26.78;42.34;99357.78;218239;1269;139786;-70
2023/06/17 11:11:30;;;;;;;7.40;6.70;;;;;;;26.77;41.93;99357.11;218706;1269;139829;-71
2023/06/17 11:16:34;;;;;;;9.40;6.90;;;;;;;27.14;42.05;99363.69;218692;1270;138670;-69
2023/06/17 11:21:38;;;;;;;7.30;6.70;;;;;;;27.84;41.54;99358.98;218961;1270;139872;-69
2023/06/17 11:26:45;;;;;;;5.10;4.70;;;;;;;28.17;40.53;99356.56;218580;1270;139458;-69
2023/06/17 11:31:49;;;;;;;6.40;5.80;;;;;;;28.37;40.04;99352.59;217895;1269;466477;-69
2023/06/17 11:36:53;;;;;;;8.50;5.90;;;;;;;28.53;39.51;99347.80;217511;1270;139373;-70
2023/06/17 11:42:02;;;;;;;10.00;5.30;;;;;;;28.36;38.86;99355.52;217537;1270;140235;-70
2023/06/17 11:47:08;;;;;;;5.50;4.50;;;;;;;27.82;38.67;99354.58;217733;1270;139793;-70
2023/06/17 11:52:16;;;;;;;5.80;5.30;;;;;;;27.37;38.75;99355.02;217499;1269;139801;-69
2023/06/17 11:57:22;;;;;;;5.60;5.20;;;;;;;27.14;39.01;99351.52;217328;1269;139904;-69
2023/06/17 12:02:29;;;;;;;67.20;8.60;;;;;;;26.93;39.26;99350.20;217101;1270;138556;-69
2023/06/17 12:07:41;;;;;;;6.60;4.70;;;;;;;26.91;39.54;99352.00;216178;1271;139764;-68
2023/06/17 12:12:47;;;;;;;5.60;5.10;;;;;;;26.89;39.06;99350.73;216277;1269;138796;-69
2023/06/17 12:17:53;;;;;;;6.90;5.50;;;;;;;26.81;39.10;99349.42;216209;1271;138775;-69
2023/06/17 12:22:57;;;;;;;5.40;5.00;;;;;;;26.88;39.57;99342.17;216236;1273;139678;-69
2023/06/17 12:28:02;;;;;;;5.30;4.90;;;;;;;27.03;39.30;99337.48;216821;1270;138451;-69
2023/06/17 12:33:06;;;;;;;5.50;5.10;;;;;;;27.52;39.29;99337.77;217107;1270;139696;-69
2023/06/17 12:38:10;;;;;;;6.20;5.20;;;;;;;28.04;38.66;99337.73;215844;1271;140175;-69
2023/06/17 12:43:15;;;;;;;6.30;5.20;;;;;;;28.02;37.86;99337.92;216294;1270;140244;-69
2023/06/17 12:48:19;;;;;;;6.90;5.30;;;;;;;27.73;37.76;99340.30;216850;1270;139329;-69
2023/06/17 12:53:23;;;;;;;5.40;5.00;;;;;;;27.46;37.98;99340.69;216572;1270;138978;-68
2023/06/17 12:58:28;;;;;;;5.80;5.30;;;;;;;27.25;38.16;99344.80;216268;1270;139302;-69
2023/06/17 13:03:32;;;;;;;6.30;5.80;;;;;;;27.05;38.34;99342.70;217619;1270;140532;-69
2023/06/17 13:08:37;;;;;;;5.60;5.20;;;;;;;27.08;38.89;99337.06;217174;1270;139541;-69
2023/06/17 13:13:42;;;;;;;6.20;5.20;;;;;;;27.22;39.29;99333.63;218367;1270;138602;-71
2023/06/17 13:18:46;;;;;;;8.10;5.70;;;;;;;27.36;39.23;99331.23;218407;1270;141180;-69
2023/06/17 13:23:50;;;;;;;6.00;5.40;;;;;;;27.51;38.56;99324.46;218584;1270;139826;-70
2023/06/17 13:28:54;;;;;;;10.80;5.40;;;;;;;27.56;38.39;99322.58;217571;1270;139756;-70
2023/06/17 13:33:58;;;;;;;6.30;4.80;;;;;;;27.61;38.20;99314.98;217539;1270;139678;-69
2023/06/17 13:39:04;;;;;;;5.10;4.80;;;;;;;27.73;38.15;99313.77;216558;1270;139826;-69
2023/06/17 13:44:10;;;;;;;5.00;4.60;;;;;;;27.48;37.67;99315.80;216767;1270;139220;-69
2023/06/17 13:49:15;;;;;;;5.80;5.40;;;;;;;27.19;37.95;99314.73;217516;1269;138713;-70
2023/06/17 13:54:20;;;;;;;16.10;5.40;;;;;;;27.18;37.80;99311.75;216113;1270;138795;-69
2023/06/17 13:59:25;;;;;;;5.00;4.70;;;;;;;27.25;37.83;99308.92;217170;1269;139883;-70
2023/06/17 14:04:30;;;;;;;5.40;4.90;;;;;;;27.00;38.10;99307.31;216253;1273;139024;-70
2023/06/17 14:09:35;;;;;;;6.20;5.80;;;;;;;26.61;38.72;99302.73;217117;1272;139061;-70
2023/06/17 14:14:40;;;;;;;5.70;5.20;;;;;;;26.24;39.24;99302.14;216186;1273;140754;-71
2023/06/17 14:19:44;;;;;;;8.00;5.90;;;;;;;26.01;39.77;99307.80;216899;1270;139247;-68
2023/06/17 14:24:51;;;;;;;5.50;4.90;;;;;;;25.80;40.06;99305.48;216708;1270;139186;-69
2023/06/17 14:29:58;;;;;;;7.20;5.90;;;;;;;25.54;40.72;99305.33;216838;1272;139448;-69
2023/06/17 14:35:04;;;;;;;5.70;5.30;;;;;;;25.39;41.13;99306.83;216135;1270;138857;-69
2023/06/17 14:40:10;;;;;;;6.80;5.10;;;;;;;25.30;41.76;99310.30;216222;1270;140117;-70
2023/06/17 14:45:16;;;;;;;6.10;5.60;;;;;;;25.24;41.61;99312.96;216980;1273;138910;-69
2023/06/17 14:50:23;;;;;;;5.60;5.10;;;;;;;25.22;42.24;99313.23;216899;1270;139254;-70
2023/06/17 14:55:29;;;;;;;5.90;5.30;;;;;;;25.23;42.86;99312.23;216070;1270;139907;-70
2023/06/17 15:00:34;;;;;;;;;;;;;;;25.21;42.75;99315.85;218176;1270;140509;-69
2023/06/17 15:05:38;;;;;;;8.10;6.40;;;;;;;25.11;43.43;99314.52;217230;1270;126162;-71
2023/06/17 15:10:45;;;;;;;6.30;5.90;;;;;;;25.08;43.35;99309.91;217878;1271;138972;-70
2023/06/17 15:15:50;;;;;;;5.70;5.30;;;;;;;25.06;43.73;99310.09;218504;1269;140206;-70
2023/06/17 15:20:54;;;;;;;6.10;5.70;;;;;;;25.06;43.75;99304.80;217976;1270;139640;-71
2023/06/17 15:26:00;;;;;;;5.50;5.00;;;;;;;25.15;43.76;99305.63;218327;1271;139255;-70
2023/06/17 15:31:04;;;;;;;5.30;4.90;;;;;;;25.11;43.32;99308.15;217403;1272;139651;-69
2023/06/17 15:36:15;;;;;;;6.00;5.30;;;;;;;24.99;43.07;99309.23;217852;1270;140150;-70
2023/06/17 15:41:20;;;;;;;5.30;4.90;;;;;;;24.84;43.06;99311.42;216428;1270;141300;-71
2023/06/17 15:46:26;;;;;;;5.90;5.30;;;;;;;24.66;43.08;99311.30;216550;1270;139336;-70
2023/06/17 15:51:31;;;;;;;7.80;7.10;;;;;;;24.43;43.00;99317.76;216532;1270;138824;-70
2023/06/17 15:56:38;;;;;;;9.40;8.60;;;;;;;24.11;43.75;99326.72;216032;1270;139060;-68
2023/06/17 16:01:43;;;;;;;13.80;9.30;;;;;;;23.83;44.79;99338.94;216922;1270;140118;-68
2023/06/17 16:06:47;;;;;;;21.80;12.50;;;;;;;23.51;46.66;99349.41;216965;1271;139162;-69
2023/06/17 16:11:53;;;;;;;16.90;12.90;;;;;;;23.08;49.49;99360.83;216661;1271;139884;-67
2023/06/17 16:16:58;;;;;;;19.50;13.40;;;;;;;22.59;51.53;99364.29;216807;1272;139883;-67
2023/06/17 16:22:05;;;;;;;14.90;13.50;;;;;;;22.13;53.28;99365.68;216556;1271;140404;-68
2023/06/17 16:27:16;;;;;;;15.70;14.00;;;;;;;21.75;54.83;99368.64;216193;1270;139703;-70
2023/06/17 16:32:25;;;;;;;20.20;13.80;;;;;;;21.43;56.38;99366.91;216814;1270;140094;-71
2023/06/17 16:38:10;;;;;;;15.70;13.50;;;;;;;21.22;57.47;99373.09;217261;1270;236862;-71
2023/06/17 16:43:34;;;;;;;15.40;13.70;;;;;;;21.02;58.22;99371.47;216287;1273;140918;-71
2023/06/17 16:48:59;;;;;;;14.20;12.40;;;;;;;20.89;59.28;99371.59;216119;1272;139891;-70
2023/06/17 16:54:15;;;;;;;17.40;15.70;;;;;;;20.86;60.03;99377.41;216203;1273;139499;-69
2023/06/17 16:59:22;;;;;;;15.10;12.80;;;;;;;20.76;60.26;99380.48;217938;1270;140845;-70
2023/06/17 17:04:28;;;;;;;15.10;13.80;;;;;;;20.63;60.95;99380.98;217200;1270;139568;-70
2023/06/17 17:09:42;;;;;;;14.30;12.90;;;;;;;20.57;61.45;99379.29;218730;1269;140789;-70
2023/06/17 17:15:12;;;;;;;14.80;11.70;;;;;;;20.53;61.69;99377.48;218105;1268;140439;-70
2023/06/17 17:20:57;;;;;;;14.70;11.70;;;;;;;20.44;61.82;99376.92;217294;1271;139771;-71
2023/06/17 17:26:28;;;;;;;10.60;9.70;;;;;;;20.31;62.15;99382.23;215964;1270;139680;-70
2023/06/17 17:31:51;;;;;;;12.50;11.50;;;;;;;20.03;62.68;99382.98;217954;1270;139941;-71
2023/06/17 17:37:20;;;;;;;12.70;11.00;;;;;;;19.91;63.69;99388.77;217020;1271;139972;-70
2023/06/17 17:42:42;;;;;;;13.90;12.60;;;;;;;19.84;64.41;99392.29;217694;1269;140042;-71
2023/06/17 17:48:10;;;;;;;13.90;12.50;;;;;;;19.81;64.84;99389.02;216665;1270;140182;-70
2023/06/17 17:53:32;;;;;;;13.30;11.10;;;;;;;19.70;65.22;99389.66;216712;1271;140471;-70
2023/06/17 17:58:46;;;;;;;13.20;10.90;;;;;;;19.58;65.82;99394.31;216316;1273;140369;-71
2023/06/17 18:03:51;;;;;;;13.20;12.00;;;;;;;19.43;66.31;99392.09;216685;1273;140647;-70
2023/06/17 18:08:56;;;;;;;13.90;12.70;;;;;;;19.29;67.01;99391.66;216743;1273;140840;-70
2023/06/17 18:14:08;;;;;;;14.30;13.10;;;;;;;19.14;67.52;99391.84;217558;1271;140607;-70
2023/06/17 18:19:13;;;;;;;16.10;14.60;;;;;;;19.12;68.30;99395.41;216927;1272;140162;-70
2023/06/17 18:24:19;;;;;;;16.30;13.60;;;;;;;19.09;68.53;99398.20;217020;1271;140272;-69
2023/06/17 18:29:23;;;;;;;15.30;14.00;;;;;;;19.05;68.88;99396.61;216034;1272;140211;-70
2023/06/17 18:34:27;;;;;;;15.20;13.70;;;;;;;18.99;68.94;99401.21;217153;1271;141302;-70
2023/06/17 18:39:32;;;;;;;17.70;16.20;;;;;;;18.89;69.13;99411.33;216585;1269;141923;-71
2023/06/17 18:44:37;;;;;;;16.60;14.90;;;;;;;18.78;69.13;99415.61;217783;1271;139951;-70
2023/06/17 18:49:42;;;;;;;18.20;14.90;;;;;;;18.65;69.19;99422.11;218487;1271;141144;-70
2023/06/17 18:54:47;;;;;;;16.40;15.00;;;;;;;18.49;69.34;99434.52;218530;1270;140602;-70
2023/06/17 18:59:51;;;;;;;15.60;14.30;;;;;;;18.27;69.62;99446.80;217990;1270;140668;-70
2023/06/17 19:04:55;;;;;;;16.50;14.50;;;;;;;18.16;70.14;99465.13;218606;1271;141384;-70
2023/06/17 19:09:59;;;;;;;14.30;13.10;;;;;;;18.16;70.49;99474.10;217326;1270;141165;-68
2023/06/17 19:15:04;;;;;;;16.60;13.10;;;;;;;18.16;70.70;99479.70;217302;1271;140988;-70
2023/06/17 19:20:12;;;;;;;13.00;11.80;;;;;;;18.16;70.87;99492.38;217158;1269;140586;-69
2023/06/17 19:25:20;;;;;;;14.50;13.00;;;;;;;18.12;71.06;99511.54;217490;1272;139798;-69
2023/06/17 19:30:35;;;;;;;15.80;12.10;;;;;;;18.01;71.33;99526.83;216693;1273;140233;-70
2023/06/17 19:35:42;;;;;;;14.00;12.60;;;;;;;17.94;71.54;99535.23;216393;1271;235076;-70
2023/06/17 19:40:47;;;;;;;13.40;11.40;;;;;;;17.90;71.96;99538.52;217207;1271;140690;-68
2023/06/17 19:45:54;;;;;;;13.30;12.00;;;;;;;17.83;71.98;99546.08;216279;1272;139912;-69
2023/06/17 19:50:59;;;;;;;10.80;9.40;;;;;;;17.74;72.20;99554.27;216382;1270;140036;-70
2023/06/17 19:56:03;;;;;;;11.90;10.80;;;;;;;17.64;72.29;99553.98;216554;1271;141283;-69
2023/06/17 20:01:08;;;;;;;10.70;9.60;;;;;;;17.55;72.56;99548.89;216072;1270;140311;-69
2023/06/17 20:06:13;;;;;;;12.30;10.00;;;;;;;17.45;72.83;99545.86;216183;1271;140085;-68
2023/06/17 20:11:16;;;;;;;11.40;10.50;;;;;;;17.36;73.07;99538.79;217521;1269;141050;-69
2023/06/17 20:16:21;;;;;;;10.00;9.00;;;;;;;17.28;73.35;99530.08;216677;1270;141534;-72
2023/06/17 20:21:25;;;;;;;9.90;8.80;;;;;;;17.21;73.50;99527.44;216477;1270;140641;-68
2023/06/17 20:45:12;;;;;;;8.00;7.40;;;;;;;16.92;74.29;99510.29;213969;1296;685345;-74
2023/06/17 20:50:15;;;;;;;9.30;6.90;;;;;;;16.79;74.46;99512.55;216675;1273;139411;-66
2023/06/17 20:55:18;;;;;;;9.20;8.00;;;;;;;16.73;74.58;99505.39;216078;1273;731212;-66
2023/06/17 21:00:21;;;;;;;7.80;6.90;;;;;;;16.71;74.93;99497.27;217278;1270;138683;-70
2023/06/17 21:05:24;;;;;;;8.80;8.10;;;;;;;16.67;75.08;99487.33;216158;1272;139154;-64
2023/06/17 21:10:29;;;;;;;7.30;6.60;;;;;;;16.60;75.19;99486.70;216881;1270;139519;-65
2023/06/17 21:15:32;;;;;;;9.50;8.00;;;;;;;16.48;75.06;99490.50;217278;1267;139021;-64
2023/06/17 21:20:35;;;;;;;6.20;5.60;;;;;;;16.30;75.15;99492.92;216108;1273;139106;-65
2023/06/17 21:25:39;;;;;;;8.40;7.50;;;;;;;16.17;75.67;99495.39;216535;1267;138898;-65
2023/06/17 21:30:42;;;;;;;7.00;6.40;;;;;;;16.12;75.97;99496.48;216350;1268;139687;-66
2023/06/17 21:35:46;;;;;;;7.70;7.10;;;;;;;16.03;76.14;99497.16;216628;1272;139162;-66
2023/06/17 21:40:49;;;;;;;8.00;7.30;;;;;;;15.98;76.55;99495.77;216838;1267;139143;-66
2023/06/17 21:45:52;;;;;;;8.60;7.90;;;;;;;15.97;76.80;99493.15;217212;1267;139959;-63
2023/06/17 21:50:55;;;;;;;8.20;7.50;;;;;;;16.01;77.26;99495.98;216573;1267;142013;-65
2023/06/17 21:56:01;;;;;;;6.90;6.30;;;;;;;16.03;77.59;99498.08;217581;1268;140422;-63
2023/06/17 22:01:04;;;;;;;7.00;6.40;;;;;;;16.00;77.28;99499.75;217418;1267;139373;-65
2023/06/17 22:06:07;;;;;;;8.70;7.90;;;;;;;15.91;77.58;99507.10;219124;1267;140927;-64
2023/06/17 22:11:11;;;;;;;8.70;7.70;;;;;;;15.96;77.90;99507.13;218846;1267;140823;-62
2023/06/17 22:16:15;;;;;;;8.50;7.70;;;;;;;15.99;77.78;99503.19;219261;1269;140092;-62
2023/06/17 22:21:19;;;;;;;8.70;7.60;;;;;;;15.96;77.87;99505.84;219184;1267;139618;-62
2023/06/17 22:26:22;;;;;;;8.70;7.40;;;;;;;15.88;77.59;99507.33;219151;1267;139944;-63
2023/06/17 22:31:26;;;;;;;8.20;7.40;;;;;;;15.87;77.73;99511.38;218193;1267;139712;-63
2023/06/17 22:36:32;;;;;;;8.80;8.10;;;;;;;15.85;77.65;99517.78;216176;1270;139534;-64
2023/06/17 22:41:36;;;;;;;;;;;;;;;15.79;77.67;99512.85;217225;1269;139841;-64
2023/06/17 22:46:40;;;;;;;9.10;8.40;;;;;;;15.61;77.62;99501.66;216794;1267;125710;-62
2023/06/17 22:51:43;;;;;;;11.90;8.90;;;;;;;15.47;77.66;99490.55;216328;1271;139641;-64
2023/06/17 22:56:47;;;;;;;9.40;8.50;;;;;;;15.30;77.83;99483.88;216524;1269;139843;-64
2023/06/17 23:01:51;;;;;;;9.20;8.40;;;;;;;15.24;78.05;99484.27;217339;1269;140006;-65
2023/06/17 23:06:55;;;;;;;9.60;8.60;;;;;;;15.17;77.87;99485.67;216143;1269;140264;-65
2023/06/17 23:11:59;;;;;;;10.10;9.20;;;;;;;15.02;77.60;99487.84;216266;1267;139806;-65
2023/06/17 23:17:03;;;;;;;10.10;9.20;;;;;;;14.89;77.68;99493.59;216508;1267;141287;-65
2023/06/17 23:22:09;;;;;;;10.30;9.50;;;;;;;14.76;77.76;99496.42;216256;1267;139222;-65
2023/06/17 23:27:15;;;;;;;10.40;9.40;;;;;;;14.68;77.84;99496.16;217638;1263;139076;-67
2023/06/17 23:32:17;;;;;;;11.40;10.30;;;;;;;14.59;78.16;99494.77;216798;1264;140487;-66